Time;durP1;ratioP1;P1;durP2;ratioP2;P2;SDS_P1;SDS_P2;PMS_P1;PMS_P2;Temp;Humidity;BMP_temperature;BMP_pressure;BME280_temperature;BME280_humidity;BME280_pressure;Samples;Min_cycle;Max_cycle;Signal;HPM_P1;HPM_P2
2023/03/04 00:02:19;;;;;;;102.93;30.10;;;1.60;85.20;;;;;;5052909;28;21005;-60
2023/03/04 00:04:46;;;;;;;105.47;26.23;;;;;;;;;;5081680;28;21354;-59
2023/03/04 00:07:15;;;;;;;76.23;26.30;;;;;;;;;;5065515;28;20552;-59
2023/03/04 00:09:42;;;;;;;76.30;22.80;;;;;;;;;;5068125;28;20917;-59
2023/03/04 00:12:09;;;;;;;61.37;22.63;;;;;;;;;;5072058;28;20486;-59
2023/03/04 00:14:36;;;;;;;65.20;24.20;;;;;;;;;;5069795;28;20494;-59
2023/03/04 00:17:04;;;;;;;83.77;25.37;;;;;;;;;;5071296;28;20486;-59
2023/03/04 00:19:33;;;;;;;96.00;27.57;;;1.20;85.30;;;;;;5059559;28;20878;-60
2023/03/04 00:22:00;;;;;;;117.17;31.17;;;;;;;;;;5076754;28;20719;-58
2023/03/04 00:24:27;;;;;;;91.63;25.10;;;;;;;;;;5063340;28;20963;-59
2023/03/04 00:26:54;;;;;;;117.57;31.83;;;;;;;;;;5076739;28;20486;-59
2023/03/04 00:29:21;;;;;;;116.17;30.07;;;;;;;;;;5073167;28;20508;-59
2023/03/04 00:31:48;;;;;;;112.07;28.80;;;3.60;91.10;;;;;;5063991;28;20621;-59
2023/03/04 00:34:15;;;;;;;78.37;26.60;;;1.10;90.30;;;;;;5063948;28;20486;-58
2023/03/04 00:36:43;;;;;;;73.40;27.67;;;1.00;90.40;;;;;;5065431;28;20958;-59
2023/03/04 00:39:10;;;;;;;94.20;31.50;;;;;;;;;;5066910;28;20990;-59
2023/03/04 00:41:37;;;;;;;74.83;27.70;;;1.20;89.90;;;;;;5072021;28;20601;-58
2023/03/04 00:44:04;;;;;;;91.73;29.87;;;1.20;89.10;;;;;;5063341;28;20497;-59
2023/03/04 00:46:31;;;;;;;82.63;28.00;;;;;;;;;;5081077;28;20482;-59
2023/03/04 00:48:58;;;;;;;112.20;33.20;;;1.20;87.90;;;;;;5070484;28;20466;-59
2023/03/04 00:51:25;;;;;;;73.80;22.90;;;;;;;;;;5070528;28;20491;-59
2023/03/04 00:53:53;;;;;;;108.63;31.20;;;1.10;86.00;;;;;;5067004;28;20489;-59
2023/03/04 00:56:20;;;;;;;85.77;25.87;;;1.10;86.20;;;;;;5073873;27;20473;-59
2023/03/04 00:58:46;;;;;;;101.43;27.10;;;1.00;86.20;;;;;;5068976;28;20974;-60
2023/03/04 01:01:13;;;;;;;77.83;26.10;;;;;;;;;;5068960;27;21033;-59
2023/03/04 01:03:41;;;;;;;88.40;26.77;;;;;;;;;;5066163;28;20486;-60
2023/03/04 01:06:08;;;;;;;67.23;22.73;;;0.50;86.40;;;;;;5074682;28;20532;-59
2023/03/04 01:08:35;;;;;;;75.40;26.40;;;1.00;87.40;;;;;;5071753;28;20536;-59
2023/03/04 01:11:03;;;;;;;97.73;28.90;;;0.40;88.40;;;;;;5061858;28;20477;-59
2023/03/04 01:13:30;;;;;;;100.03;27.70;;;;;;;;;;5070388;28;20806;-59
2023/03/04 01:15:57;;;;;;;109.30;30.73;;;;;;;;;;5047412;28;21004;-60
2023/03/04 01:18:24;;;;;;;87.40;27.67;;;0.60;88.60;;;;;;5078083;28;20687;-59
2023/03/04 01:20:51;;;;;;;109.63;34.90;;;0.60;88.30;;;;;;5060928;27;20508;-59
2023/03/04 01:23:17;;;;;;;90.53;26.33;;;0.70;88.40;;;;;;5075071;28;20520;-60
2023/03/04 01:25:44;;;;;;;77.50;26.97;;;0.70;88.60;;;;;;5072801;28;20486;-60
2023/03/04 01:28:13;;;;;;;87.37;30.03;;;;;;;;;;5058480;28;25581;-60
2023/03/04 01:30:39;;;;;;;75.40;24.23;;;0.60;86.80;;;;;;5075986;28;20479;-59
2023/03/04 01:33:06;;;;;;;70.03;26.13;;;0.40;85.80;;;;;;5068688;28;21170;-59
2023/03/04 01:35:33;;;;;;;72.27;27.00;;;0.40;85.80;;;;;;5069254;28;20482;-59
2023/03/04 01:37:59;;;;;;;106.80;30.43;;;0.30;85.70;;;;;;5064339;28;20478;-59
2023/03/04 01:40:26;;;;;;;103.90;29.57;;;0.20;87.00;;;;;;5065080;28;20483;-59
2023/03/04 01:42:53;;;;;;;106.33;30.97;;;;;;;;;;5067201;28;20482;-60
2023/03/04 01:45:21;;;;;;;106.00;28.77;;;0.10;87.30;;;;;;5068547;28;20486;-59
2023/03/04 01:47:50;;;;;;;109.23;31.90;;;0.20;87.00;;;;;;5070199;28;20532;-60
2023/03/04 01:50:21;;;;;;;108.93;30.00;;;0.20;86.50;;;;;;5061307;28;20514;-59
2023/03/04 01:52:48;;;;;;;103.10;28.17;;;;;;;;;;5066250;28;20485;-59
2023/03/04 01:55:17;;;;;;;103.80;28.03;;;0.20;87.20;;;;;;5073510;28;20714;-59
2023/03/04 01:57:45;;;;;;;93.23;28.27;;;0.10;86.00;;;;;;5067896;28;20536;-60
2023/03/04 02:00:33;;;;;;;82.50;28.10;;;;;;;;;;5064533;28;20482;-60
2023/03/04 02:03:06;;;;;;;77.03;26.10;;;-0.40;88.90;;;;;;5062645;28;20914;-59
2023/03/04 02:05:35;;;;;;;95.67;29.13;;;-0.60;90.00;;;;;;5067871;28;20528;-60
2023/03/04 02:08:04;;;;;;;115.73;29.20;;;-0.70;90.30;;;;;;5067331;28;20491;-59
2023/03/04 02:10:31;;;;;;;86.70;26.67;;;;;;;;;;5060938;28;20486;-59
2023/03/04 02:12:59;;;;;;;115.17;30.70;;;-0.50;90.50;;;;;;5074633;28;20585;-58
2023/03/04 02:15:25;;;;;;;106.80;28.67;;;-0.40;90.10;;;;;;5071717;28;20493;-60
2023/03/04 02:17:52;;;;;;;120.87;30.73;;;;;;;;;;5072151;28;20478;-60
2023/03/04 02:20:31;;;;;;;88.30;25.13;;;-0.20;88.70;;;;;;5069468;28;20486;-59
2023/03/04 02:23:07;;;;;;;121.70;31.40;;;-0.30;86.90;;;;;;5065308;28;20485;-60
2023/03/04 02:25:38;;;;;;;98.23;25.53;;;-0.40;86.60;;;;;;5060177;28;20472;-59
2023/03/04 02:28:06;;;;;;;104.50;29.73;;;-3.70;84.60;;;;;;5069987;28;21174;-59
2023/03/04 02:30:33;;;;;;;80.07;25.30;;;-0.70;89.30;;;;;;5064703;28;20535;-59
2023/03/04 02:33:00;;;;;;;112.03;31.90;;;-0.70;90.00;;;;;;5069778;28;21038;-60
2023/03/04 02:35:27;;;;;;;85.23;25.87;;;-0.70;89.00;;;;;;5064103;28;20490;-60
2023/03/04 02:37:54;;;;;;;105.47;29.70;;;-0.60;88.20;;;;;;5066533;28;20474;-59
2023/03/04 02:40:24;;;;;;;125.33;30.60;;;-0.60;87.40;;;;;;5063132;28;20569;-59
2023/03/04 02:42:51;;;;;;;107.40;30.90;;;-0.60;87.20;;;;;;5067808;28;20482;-59
2023/03/04 02:45:38;;;;;;;106.20;26.83;;;;;;;;;;5067919;28;20952;-60
2023/03/04 02:48:06;;;;;;;82.53;28.90;;;-0.50;86.90;;;;;;5065480;28;20467;-60
2023/03/04 02:50:36;;;;;;;72.67;23.90;;;-0.50;87.20;;;;;;5044510;28;20511;-59
2023/03/04 02:53:03;;;;;;;97.73;29.20;;;-0.50;87.10;;;;;;5074800;28;20478;-59
2023/03/04 02:55:31;;;;;;;85.57;26.67;;;-0.50;86.70;;;;;;5052966;28;20543;-60
2023/03/04 02:57:57;;;;;;;94.97;30.67;;;-0.50;86.90;;;;;;5065180;28;20921;-59
2023/03/04 03:00:24;;;;;;;106.60;32.80;;;;;;;;;;5069064;28;20913;-59
2023/03/04 03:02:53;;;;;;;90.70;31.77;;;-0.50;85.80;;;;;;5066498;28;20536;-60
2023/03/04 03:05:20;;;;;;;98.47;27.30;;;-1.60;84.40;;;;;;5070546;28;20462;-59
2023/03/04 03:07:46;;;;;;;87.00;27.00;;;-0.70;85.40;;;;;;5064285;28;20469;-59
2023/03/04 03:10:13;;;;;;;86.27;24.53;;;-0.80;85.60;;;;;;5064875;28;20547;-59
2023/03/04 03:12:40;;;;;;;66.00;25.50;;;;;;;;;;5066692;28;20479;-59
2023/03/04 03:15:08;;;;;;;82.17;26.30;;;-0.80;85.40;;;;;;5050917;28;20532;-58
2023/03/04 03:17:35;;;;;;;85.73;26.27;;;-0.80;86.00;;;;;;5058452;28;21023;-59
2023/03/04 03:20:03;;;;;;;105.40;28.00;;;-0.80;86.10;;;;;;5066687;28;20840;-59
2023/03/04 03:22:30;;;;;;;77.13;25.73;;;;;;;;;;5065202;28;20482;-59
2023/03/04 03:24:57;;;;;;;99.97;31.87;;;;;;;;;;5068827;28;20542;-60
2023/03/04 03:27:24;;;;;;;95.47;28.43;;;-1.00;86.00;;;;;;5060425;28;20539;-60
2023/03/04 03:29:51;;;;;;;94.17;29.80;;;-0.90;86.10;;;;;;5051600;28;20979;-60
2023/03/04 03:32:17;;;;;;;107.30;28.00;;;-0.90;86.20;;;;;;5082502;28;20527;-59
2023/03/04 03:34:44;;;;;;;77.83;26.60;;;-0.80;86.20;;;;;;5062447;28;20486;-60
2023/03/04 03:37:13;;;;;;;99.10;30.67;;;;;;;;;;5088474;28;20482;-60
2023/03/04 03:39:40;;;;;;;97.47;27.40;;;-1.10;85.60;;;;;;5063062;28;20478;-60
2023/03/04 03:42:07;;;;;;;66.60;22.67;;;-1.20;84.90;;;;;;5087406;28;20628;-60
2023/03/04 03:44:33;;;;;;;90.13;27.80;;;-1.20;84.80;;;;;;5055470;28;20489;-60
2023/03/04 03:47:00;;;;;;;118.00;31.17;;;-1.40;85.00;;;;;;5067766;28;20514;-60
2023/03/04 03:49:27;;;;;;;103.13;27.13;;;-1.50;85.60;;;;;;5069324;28;21447;-60
2023/03/04 03:51:54;;;;;;;137.37;32.77;;;-1.70;86.70;;;;;;5062353;28;20482;-59
2023/03/04 03:54:22;;;;;;;107.50;31.47;;;-1.80;87.40;;;;;;5066431;28;20892;-61
2023/03/04 03:56:49;;;;;;;91.43;28.30;;;-2.00;88.70;;;;;;5051567;28;20966;-61
2023/03/04 03:59:15;;;;;;;96.57;25.43;;;-1.90;90.00;;;;;;5039624;28;20561;-60
2023/03/04 04:01:42;;;;;;;79.50;25.17;;;-1.80;90.30;;;;;;5053628;28;20902;-61
2023/03/04 04:04:09;;;;;;;97.67;26.87;;;;;;;;;;5071661;28;21091;-60
2023/03/04 04:06:36;;;;;;;96.90;26.57;;;;;;;;;;5066478;28;20478;-61
2023/03/04 04:09:03;;;;;;;99.97;28.90;;;-1.40;87.80;;;;;;5071388;28;21304;-60
2023/03/04 04:11:31;;;;;;;85.30;25.97;;;-2.80;86.10;;;;;;5055079;28;20485;-59
2023/03/04 04:13:57;;;;;;;127.70;32.80;;;-1.50;86.80;;;;;;5082660;28;20486;-61
2023/03/04 04:16:24;;;;;;;106.13;24.13;;;-1.50;86.60;;;;;;5070047;28;20487;-60
2023/03/04 04:18:51;;;;;;;115.83;28.73;;;;;;;;;;5060314;28;20497;-61
2023/03/04 04:21:18;;;;;;;86.17;26.33;;;-1.50;85.60;;;;;;5077240;28;20531;-60
2023/03/04 04:23:45;;;;;;;104.57;26.07;;;-1.50;85.20;;;;;;5080122;28;20803;-60
2023/03/04 04:26:11;;;;;;;79.63;22.67;;;-1.50;85.50;;;;;;5072001;28;20566;-59
2023/03/04 04:28:39;;;;;;;85.13;22.83;;;-1.50;85.40;;;;;;5077287;28;20481;-60
2023/03/04 04:31:07;;;;;;;82.07;24.33;;;-1.50;85.30;;;;;;5071046;28;20486;-59
2023/03/04 04:33:34;;;;;;;89.23;27.63;;;;;;;;;;5065098;28;20481;-59
2023/03/04 04:36:02;;;;;;;121.53;30.10;;;-1.40;86.00;;;;;;5065569;28;20488;-60
2023/03/04 04:38:29;;;;;;;101.20;28.60;;;-1.50;85.40;;;;;;5079309;28;20566;-59
2023/03/04 04:40:58;;;;;;;127.73;30.80;;;;;;;;;;5069030;28;20802;-60
2023/03/04 04:43:25;;;;;;;96.90;26.10;;;-1.70;85.20;;;;;;5068653;28;21180;-61
2023/03/04 04:45:53;;;;;;;139.40;33.00;;;-1.60;84.70;;;;;;5065351;28;20880;-60
2023/03/04 04:48:20;;;;;;;92.30;24.07;;;;;;;;;;5067085;28;21048;-60
2023/03/04 04:50:47;;;;;;;90.53;25.40;;;;;;;;;;5069340;28;20495;-59
2023/03/04 04:53:14;;;;;;;102.87;27.80;;;-1.70;85.70;;;;;;5064228;28;20645;-59
2023/03/04 04:55:41;;;;;;;97.27;26.50;;;;;;;;;;5060200;28;20494;-59
2023/03/04 04:58:07;;;;;;;74.20;23.37;;;-1.60;85.10;;;;;;5055247;28;20478;-59
2023/03/04 05:00:34;;;;;;;74.90;22.47;;;-1.60;84.80;;;;;;5081546;27;21057;-60
2023/03/04 05:03:02;;;;;;;98.57;27.73;;;-1.70;84.40;;;;;;5068710;28;21072;-59
2023/03/04 05:05:29;;;;;;;82.13;24.77;;;;;;;;;;5068560;28;20482;-60
2023/03/04 05:07:56;;;;;;;116.03;31.93;;;;;;;;;;5067912;28;20462;-59
2023/03/04 05:10:23;;;;;;;95.67;26.27;;;-2.00;84.30;;;;;;5069734;28;20624;-60
2023/03/04 05:12:50;;;;;;;111.80;29.47;;;-2.20;85.20;;;;;;5065650;28;20482;-60
2023/03/04 05:15:16;;;;;;;111.57;28.33;;;-2.30;85.40;;;;;;5060486;28;20492;-60
2023/03/04 05:17:43;;;;;;;100.93;24.63;;;-2.30;87.10;;;;;;5061280;28;20531;-61
2023/03/04 05:20:12;;;;;;;89.10;24.37;;;-2.40;88.00;;;;;;5065874;27;20568;-59
2023/03/04 05:22:39;;;;;;;92.70;27.33;;;-2.40;87.50;;;;;;5076393;28;20492;-60
2023/03/04 05:25:06;;;;;;;95.07;27.47;;;-2.40;87.50;;;;;;5064965;28;20482;-60
2023/03/04 05:27:33;;;;;;;107.50;26.77;;;;;;;;;;5061888;28;20801;-59
2023/03/04 05:30:01;;;;;;;115.13;30.93;;;;;;;;;;5073204;28;20978;-59
2023/03/04 05:32:28;;;;;;;99.53;24.30;;;;;;;;;;5057018;28;20705;-60
2023/03/04 05:34:54;;;;;;;134.67;32.73;;;-2.40;87.30;;;;;;5076050;28;20480;-60
2023/03/04 05:37:22;;;;;;;102.67;26.80;;;-2.40;87.70;;;;;;5063507;28;20496;-60
2023/03/04 05:39:49;;;;;;;128.47;29.23;;;-2.40;87.30;;;;;;5066005;28;20974;-60
2023/03/04 05:42:16;;;;;;;112.67;28.87;;;-2.40;86.80;;;;;;5057787;28;20482;-59
2023/03/04 05:44:43;;;;;;;121.70;30.60;;;;;;;;;;5062154;27;20528;-59
2023/03/04 05:47:10;;;;;;;97.07;24.87;;;;;;;;;;5060765;28;20474;-60
2023/03/04 05:49:36;;;;;;;117.57;27.67;;;-2.40;86.10;;;;;;5057643;28;20489;-60
2023/03/04 05:52:03;;;;;;;122.60;29.63;;;-2.30;86.00;;;;;;5048629;28;20508;-59
2023/03/04 05:54:31;;;;;;;73.50;24.87;;;-2.40;86.00;;;;;;5058422;28;20598;-59
2023/03/04 05:56:58;;;;;;;103.63;32.37;;;;;;;;;;5056870;28;20482;-60
2023/03/04 05:59:25;;;;;;;79.17;26.07;;;;;;;;;;5080253;27;20983;-59
2023/03/04 06:01:52;;;;;;;100.13;31.50;;;-2.70;86.40;;;;;;5063780;28;20514;-60
2023/03/04 06:04:19;;;;;;;88.07;27.60;;;-2.70;86.60;;;;;;5069059;28;20485;-59
2023/03/04 06:06:46;;;;;;;80.73;24.40;;;-2.80;86.90;;;;;;5066795;28;20887;-60
2023/03/04 06:09:12;;;;;;;85.00;23.73;;;-2.80;87.30;;;;;;5065159;28;20864;-59
2023/03/04 06:11:41;;;;;;;103.30;26.20;;;-2.80;87.30;;;;;;5057051;28;20872;-59
2023/03/04 06:14:08;;;;;;;98.80;25.07;;;-2.80;87.50;;;;;;5078084;28;20547;-59
2023/03/04 06:16:34;;;;;;;86.17;24.40;;;-2.60;87.30;;;;;;5052847;28;20586;-59
2023/03/04 06:19:01;;;;;;;97.27;27.23;;;0.10;89.50;;;;;;5071519;28;20517;-59
2023/03/04 06:21:27;;;;;;;81.97;24.90;;;-2.40;86.90;;;;;;5052654;28;21088;-59
2023/03/04 06:23:54;;;;;;;133.47;32.73;;;-2.40;86.70;;;;;;5070830;28;20512;-59
2023/03/04 06:26:21;;;;;;;107.90;24.80;;;-2.40;86.40;;;;;;5066490;28;20527;-59
2023/03/04 06:28:49;;;;;;;121.13;26.23;;;;;;;;;;5060047;28;20474;-58
2023/03/04 06:31:16;;;;;;;79.37;23.37;;;-5.60;82.20;;;;;;5058405;28;20943;-59
2023/03/04 06:33:43;;;;;;;110.67;28.10;;;-2.90;84.40;;;;;;5042723;28;20737;-60
2023/03/04 06:36:09;;;;;;;75.73;21.53;;;-2.20;85.10;;;;;;5066629;28;20478;-60
2023/03/04 06:38:36;;;;;;;78.00;24.17;;;-2.20;85.00;;;;;;5051413;28;20571;-61
2023/03/04 06:41:07;;;;;;;111.73;28.67;;;-2.10;85.00;;;;;;5081326;28;20477;-60
2023/03/04 06:43:34;;;;;;;102.63;24.50;;;-2.10;85.20;;;;;;5069268;28;20632;-59
2023/03/04 06:46:03;;;;;;;112.20;28.20;;;-2.10;85.30;;;;;;5065456;28;20482;-59
2023/03/04 06:48:29;;;;;;;87.73;24.20;;;-2.00;85.40;;;;;;5067992;28;20873;-60
2023/03/04 06:50:56;;;;;;;137.10;31.43;;;-1.90;85.20;;;;;;5046728;28;21862;-59
2023/03/04 06:53:23;;;;;;;95.20;24.50;;;-1.90;85.40;;;;;;5071246;28;20705;-58
2023/03/04 06:55:50;;;;;;;116.73;30.23;;;1.90;89.00;;;;;;5061968;28;21483;-58
2023/03/04 06:58:17;;;;;;;123.30;29.90;;;;;;;;;;5061077;28;21006;-59
2023/03/04 07:00:44;;;;;;;103.30;27.63;;;;;;;;;;5071131;28;20505;-58
2023/03/04 07:03:12;;;;;;;89.07;25.67;;;-1.80;85.70;;;;;;5050378;28;20485;-60
2023/03/04 07:05:39;;;;;;;103.37;27.73;;;-1.80;86.30;;;;;;5064952;28;20495;-60
2023/03/04 07:08:06;;;;;;;103.13;28.97;;;-1.70;86.90;;;;;;5062960;28;20676;-60
2023/03/04 07:10:33;;;;;;;110.77;28.27;;;-1.60;87.10;;;;;;5056034;28;21373;-59
2023/03/04 07:13:00;;;;;;;141.77;34.40;;;;;;;;;;5067329;28;20465;-60
2023/03/04 07:15:27;;;;;;;114.97;29.93;;;-1.00;88.80;;;;;;5042207;28;20486;-60
2023/03/04 07:17:54;;;;;;;162.93;38.47;;;-0.40;89.60;;;;;;5062694;28;20531;-60
2023/03/04 07:20:22;;;;;;;113.57;30.50;;;;;;;;;;5060924;28;20561;-59
2023/03/04 07:22:49;;;;;;;120.40;31.53;;;;;;;;;;5065048;28;20497;-60
2023/03/04 07:25:16;;;;;;;121.73;34.50;;;1.30;87.20;;;;;;5064990;28;20628;-61
2023/03/04 07:27:43;;;;;;;111.83;29.33;;;1.90;86.60;;;;;;5064473;28;20482;-61
2023/03/04 07:30:11;;;;;;;90.70;29.97;;;2.50;85.50;;;;;;5055425;28;20482;-59
2023/03/04 07:32:38;;;;;;;110.43;29.63;;;;;;;;;;5066456;28;20478;-59
2023/03/04 07:35:06;;;;;;;103.77;33.30;;;3.50;84.00;;;;;;5059734;28;20964;-59
2023/03/04 07:37:34;;;;;;;111.80;36.53;;;3.70;82.40;;;;;;5060069;28;20824;-59
2023/03/04 07:40:01;;;;;;;109.03;33.50;;;4.00;82.00;;;;;;5064659;28;20540;-60
2023/03/04 07:42:28;;;;;;;78.30;31.00;;;;;;;;;;5075152;28;20486;-61
2023/03/04 07:44:55;;;;;;;115.17;36.90;;;4.30;81.50;;;;;;5054793;28;20787;-59
2023/03/04 07:47:21;;;;;;;113.60;35.50;;;4.50;80.80;;;;;;5063911;28;20591;-59
2023/03/04 07:49:48;;;;;;;109.97;33.87;;;4.50;80.70;;;;;;5063319;28;20469;-61
2023/03/04 07:52:15;;;;;;;103.23;34.47;;;4.40;80.70;;;;;;5064724;28;20470;-61
2023/03/04 07:54:43;;;;;;;96.67;31.97;;;;;;;;;;5070352;28;20788;-61
2023/03/04 07:57:10;;;;;;;84.87;30.17;;;;;;;;;;5062563;28;20485;-60
2023/03/04 07:59:37;;;;;;;103.10;33.43;;;;;;;;;;5076686;28;21101;-60
2023/03/04 08:02:04;;;;;;;134.77;37.40;;;4.40;82.50;;;;;;5059928;28;20474;-59
2023/03/04 08:04:30;;;;;;;100.80;33.57;;;4.90;84.00;;;;;;5059655;28;20475;-60
2023/03/04 08:06:57;;;;;;;126.07;38.83;;;5.50;84.70;;;;;;5067839;27;21063;-61
2023/03/04 08:09:24;;;;;;;124.07;41.10;;;6.10;83.70;;;;;;5066013;28;21200;-60
2023/03/04 08:11:52;;;;;;;121.90;41.97;;;6.50;82.40;;;;;;5055331;28;20473;-60
2023/03/04 08:14:19;;;;;;;141.03;43.40;;;;;;;;;;5076312;28;20609;-60
2023/03/04 08:16:46;;;;;;;118.07;41.00;;;6.40;79.20;;;;;;5071030;28;20920;-61
2023/03/04 08:19:13;;;;;;;99.63;37.53;;;;;;;;;;5061897;28;20542;-60
2023/03/04 08:21:40;;;;;;;122.23;41.20;;;5.90;80.50;;;;;;5074754;28;20819;-60
2023/03/04 08:24:07;;;;;;;114.33;42.63;;;5.60;80.40;;;;;;5062532;28;20552;-60
2023/03/04 08:26:37;;;;;;;126.97;43.87;;;;;;;;;;5060354;28;21118;-61
2023/03/04 08:29:05;;;;;;;132.23;46.57;;;5.30;82.70;;;;;;5060432;28;20486;-61
2023/03/04 08:31:33;;;;;;;133.10;44.40;;;1.80;80.50;;;;;;5080944;28;20467;-60
2023/03/04 08:34:00;;;;;;;134.50;48.30;;;;;;;;;;5058611;28;20655;-60
2023/03/04 08:36:26;;;;;;;106.17;40.37;;;4.90;84.40;;;;;;5071326;28;20583;-60
2023/03/04 08:38:53;;;;;;;141.07;45.53;;;4.90;85.30;;;;;;5068693;28;20501;-60
2023/03/04 08:41:20;;;;;;;113.33;39.23;;;4.90;86.10;;;;;;5070137;28;20482;-60
2023/03/04 08:43:46;;;;;;;108.87;42.03;;;5.00;86.40;;;;;;5047531;28;20586;-60
2023/03/04 08:46:14;;;;;;;113.87;40.63;;;4.80;86.40;;;;;;5072395;28;20550;-60
2023/03/04 08:48:41;;;;;;;118.67;40.90;;;;;;;;;;5062545;28;20478;-60
2023/03/04 08:51:09;;;;;;;108.10;40.83;;;5.10;88.40;;;;;;5064516;28;20506;-60
2023/03/04 08:53:37;;;;;;;132.63;42.30;;;5.10;88.50;;;;;;5063443;28;20692;-60
2023/03/04 08:56:04;;;;;;;117.70;42.57;;;5.30;89.60;;;;;;5064955;28;21091;-60
2023/03/04 08:58:30;;;;;;;134.13;42.50;;;5.50;89.10;;;;;;5063154;28;20502;-60
2023/03/04 09:00:59;;;;;;;121.23;42.17;;;;;;;;;;5065431;28;20465;-60
2023/03/04 09:03:27;;;;;;;116.07;42.77;;;5.80;89.00;;;;;;5065539;28;20475;-60
2023/03/04 09:05:54;;;;;;;128.37;45.03;;;6.10;90.00;;;;;;5057571;28;20539;-60
2023/03/04 09:08:21;;;;;;;118.27;45.97;;;6.20;89.60;;;;;;5079584;28;20478;-60
2023/03/04 09:10:48;;;;;;;116.03;41.97;;;;;;;;;;5069510;28;20513;-60
2023/03/04 09:13:15;;;;;;;108.30;40.90;;;6.30;90.30;;;;;;5062962;28;20482;-60
2023/03/04 09:15:44;;;;;;;117.57;38.40;;;6.70;90.80;;;;;;5065313;28;20559;-60
2023/03/04 09:18:11;;;;;;;115.83;38.87;;;;;;;;;;5070467;28;21012;-61
2023/03/04 09:20:40;;;;;;;102.07;40.17;;;7.50;88.80;;;;;;5053958;28;20967;-60
2023/03/04 09:23:08;;;;;;;120.77;40.23;;;;;;;;;;5066007;28;20552;-61
2023/03/04 09:25:35;;;;;;;87.73;36.70;;;8.30;87.70;;;;;;5062871;27;20522;-60
2023/03/04 09:28:01;;;;;;;114.80;40.13;;;8.50;87.20;;;;;;5059199;28;21047;-60
2023/03/04 09:30:28;;;;;;;112.00;37.90;;;;;;;;;;5063129;28;20474;-61
2023/03/04 09:32:56;;;;;;;115.03;43.03;;;;;;;;;;5058599;28;20768;-61
2023/03/04 09:35:22;;;;;;;97.17;36.93;;;8.90;86.10;;;;;;5067934;28;20475;-61
2023/03/04 09:37:51;;;;;;;101.53;34.47;;;8.70;84.40;;;;;;5061633;28;20969;-61
2023/03/04 09:40:21;;;;;;;112.00;36.13;;;8.70;85.30;;;;;;5065862;28;20474;-61
2023/03/04 09:42:52;;;;;;;99.07;35.17;;;8.80;86.40;;;;;;5049015;28;20482;-60
2023/03/04 09:45:20;;;;;;;101.43;34.37;;;;;;;;;;5077771;28;20709;-61
2023/03/04 09:47:50;;;;;;;92.50;32.23;;;8.70;86.70;;;;;;5060871;28;20534;-60
2023/03/04 09:50:18;;;;;;;82.03;34.27;;;8.70;85.20;;;;;;5074529;27;21091;-60
2023/03/04 09:53:02;;;;;;;80.80;28.27;;;8.50;83.20;;;;;;5066573;28;20738;-60
2023/03/04 09:55:35;;;;;;;80.03;34.70;;;8.40;85.10;;;;;;5048797;28;21210;-60
2023/03/04 09:58:14;;;;;;;84.50;32.07;;;8.30;83.80;;;;;;5057813;28;20478;-61
2023/03/04 10:00:42;;;;;;;69.97;27.90;;;;;;;;;;5065180;28;20486;-61
2023/03/04 10:03:18;;;;;;;77.83;29.80;;;8.40;85.80;;;;;;5049968;28;20484;-61
2023/03/04 10:05:53;;;;;;;76.30;27.30;;;8.30;85.20;;;;;;5045493;28;20474;-61
2023/03/04 10:08:32;;;;;;;67.30;21.10;;;;;;;;;;5051201;28;20875;-61
2023/03/04 10:11:01;;;;;;;94.07;23.87;;;8.20;83.90;;;;;;5052756;28;20863;-61
2023/03/04 10:13:31;;;;;;;85.70;26.63;;;;;;;;;;5076156;28;20489;-61
2023/03/04 10:16:01;;;;;;;100.33;33.63;;;8.50;85.00;;;;;;5062817;28;20489;-60
2023/03/04 10:18:33;;;;;;;75.43;27.27;;;8.30;84.00;;;;;;5061646;28;20562;-60
2023/03/04 10:21:02;;;;;;;85.47;28.50;;;8.40;84.20;;;;;;5066204;28;20654;-61
2023/03/04 10:23:32;;;;;;;54.70;19.37;;;8.10;83.70;;;;;;5067713;28;20483;-61
2023/03/04 10:26:01;;;;;;;93.83;32.00;;;7.90;84.00;;;;;;5056014;28;20837;-60
2023/03/04 10:28:30;;;;;;;80.93;28.63;;;7.70;84.40;;;;;;5068964;28;20885;-60
2023/03/04 10:30:59;;;;;;;82.73;33.20;;;;;;;;;;5050804;28;21007;-60
2023/03/04 10:33:29;;;;;;;89.87;30.00;;;7.60;85.80;;;;;;5069921;28;20622;-60
2023/03/04 10:36:00;;;;;;;80.40;32.03;;;;;;;;;;5049881;28;20783;-60
2023/03/04 10:38:33;;;;;;;74.53;25.00;;;7.80;86.10;;;;;;5073678;28;20555;-60
2023/03/04 10:40:59;;;;;;;74.43;24.10;;;7.80;83.90;;;;;;5055708;28;20481;-60
2023/03/04 10:43:26;;;;;;;64.23;25.80;;;7.80;84.50;;;;;;5054444;28;20482;-60
2023/03/04 10:45:55;;;;;;;90.50;34.30;;;;;;;;;;5049850;28;20477;-60
2023/03/04 10:48:25;;;;;;;92.53;29.63;;;7.80;84.30;;;;;;5064846;28;21016;-61
2023/03/04 10:50:53;;;;;;;92.67;30.30;;;;;;;;;;5061632;28;20478;-60
2023/03/04 10:53:25;;;;;;;77.00;27.70;;;;;;;;;;5071028;28;20526;-60
2023/03/04 10:55:53;;;;;;;78.13;28.73;;;7.70;84.20;;;;;;5064977;28;21223;-61
2023/03/04 10:58:21;;;;;;;63.33;20.23;;;7.50;83.30;;;;;;5060864;28;20588;-60
2023/03/04 11:01:00;;;;;;;67.57;24.13;;;7.50;84.00;;;;;;5061576;28;20531;-60
2023/03/04 11:03:32;;;;;;;55.27;20.77;;;7.40;84.10;;;;;;5042636;28;20490;-60
2023/03/04 11:06:06;;;;;;;65.50;24.17;;;;;;;;;;5074710;28;20479;-61
2023/03/04 11:08:33;;;;;;;57.73;20.27;;;7.30;85.30;;;;;;5067053;28;21052;-60
2023/03/04 11:11:01;;;;;;;81.37;27.87;;;7.30;83.90;;;;;;5067606;28;20478;-61
2023/03/04 11:13:27;;;;;;;60.17;22.93;;;7.30;84.10;;;;;;5066039;28;20485;-60
2023/03/04 11:15:55;;;;;;;64.60;22.23;;;;;;;;;;5065444;28;20478;-60
2023/03/04 11:18:27;;;;;;;60.27;21.23;;;7.10;84.30;;;;;;5068498;28;20509;-60
2023/03/04 11:20:55;;;;;;;71.20;25.90;;;7.00;85.30;;;;;;5071306;28;20513;-60
2023/03/04 11:23:31;;;;;;;87.03;29.37;;;7.00;84.70;;;;;;5074764;28;20466;-60
2023/03/04 11:26:00;;;;;;;85.37;32.73;;;;;;;;;;5062071;28;22065;-60
2023/03/04 11:28:31;;;;;;;74.73;21.83;;;;;;;;;;5073671;28;20474;-60
2023/03/04 11:31:02;;;;;;;82.00;26.60;;;7.10;83.70;;;;;;5073883;28;20540;-60
2023/03/04 11:33:41;;;;;;;60.97;19.67;;;7.20;83.80;;;;;;5076409;28;20482;-60
2023/03/04 11:36:21;;;;;;;73.20;23.37;;;7.90;85.00;;;;;;5071316;28;20474;-60
2023/03/04 11:38:50;;;;;;;71.23;23.40;;;7.30;84.30;;;;;;5070082;28;20730;-59
2023/03/04 11:41:19;;;;;;;76.20;22.83;;;;;;;;;;5070476;28;20696;-60
2023/03/04 11:43:48;;;;;;;79.07;22.77;;;7.30;84.10;;;;;;5068571;28;20474;-59
2023/03/04 11:46:40;;;;;;;63.80;20.90;;;7.40;84.50;;;;;;5069553;28;20474;-58
2023/03/04 11:49:28;;;;;;;65.30;20.60;;;7.40;84.20;;;;;;5058262;28;20502;-60
2023/03/04 11:52:04;;;;;;;84.57;26.20;;;7.30;84.00;;;;;;5053826;28;20553;-59
2023/03/04 11:54:35;;;;;;;60.03;18.60;;;7.30;83.70;;;;;;5041080;28;20523;-59
2023/03/04 11:57:06;;;;;;;61.73;22.90;;;;;;;;;;5044198;28;20480;-60
2023/03/04 11:59:57;;;;;;;71.67;20.83;;;7.40;84.10;;;;;;5066567;28;20536;-59
2023/03/04 12:02:29;;;;;;;50.83;17.43;;;7.30;83.50;;;;;;5071855;28;20548;-59
2023/03/04 12:05:30;;;;;;;49.87;21.50;;;7.40;83.40;;;;;;5055223;28;20794;-58
2023/03/04 12:08:07;;;;;;;73.77;26.00;;;;;;;;;;5072566;28;20572;-59
2023/03/04 12:10:39;;;;;;;50.40;18.87;;;7.30;84.00;;;;;;5063814;28;20482;-59
2023/03/04 12:13:25;;;;;;;58.73;20.23;;;;;;;;;;5059683;28;21325;-60
2023/03/04 12:16:00;;;;;;;71.37;24.50;;;7.40;84.60;;;;;;5064540;28;20805;-60
2023/03/04 12:18:40;;;;;;;55.53;19.63;;;7.50;84.90;;;;;;5056641;28;20737;-60
2023/03/04 12:21:20;;;;;;;52.50;17.73;;;7.50;84.00;;;;;;5062089;28;20469;-60
2023/03/04 12:24:22;;;;;;;61.77;21.17;;;7.50;84.10;;;;;;5047992;28;20478;-60
2023/03/04 12:26:53;;;;;;;67.67;22.37;;;7.00;83.80;;;;;;5058603;28;20530;-60
2023/03/04 12:29:23;;;;;;;54.47;22.17;;;;;;;;;;5063816;28;20527;-60
2023/03/04 12:32:00;;;;;;;46.67;18.43;;;7.50;84.00;;;;;;5073777;28;20583;-60
2023/03/04 12:34:34;;;;;;;64.90;18.13;;;;;;;;;;5050552;28;20474;-60
2023/03/04 12:37:24;;;;;;;55.90;20.47;;;7.70;83.50;;;;;;5036482;28;20484;-60
2023/03/04 12:40:15;;;;;;;56.80;20.57;;;7.70;83.80;;;;;;5050678;28;20470;-60
2023/03/04 12:42:50;;;;;;;58.30;19.67;;;;;;;;;;5073131;28;20726;-60
2023/03/04 12:45:22;;;;;;;77.87;22.53;;;7.90;83.90;;;;;;5041596;28;20838;-61
2023/03/04 12:47:58;;;;;;;60.17;19.37;;;;;;;;;;5058185;28;20470;-60
2023/03/04 12:50:29;;;;;;;62.50;20.60;;;;;;;;;;5044445;28;20496;-59
2023/03/04 12:53:05;;;;;;;64.53;21.50;;;7.80;83.00;;;;;;5065406;28;20504;-60
2023/03/04 12:55:35;;;;;;;65.53;22.83;;;;;;;;;;5047542;28;20474;-60
2023/03/04 12:58:02;;;;;;;60.57;21.10;;;;;;;;;;5053219;28;20490;-60
2023/03/04 13:00:42;;;;;;;69.30;23.23;;;8.00;83.60;;;;;;5057929;28;20535;-59
2023/03/04 13:03:15;;;;;;;58.10;19.93;;;;;;;;;;5064533;28;20564;-60
2023/03/04 13:05:45;;;;;;;67.90;20.60;;;;;;;;;;5056205;28;20666;-59
2023/03/04 13:08:17;;;;;;;50.07;19.30;;;;;;;;;;5055862;28;20995;-60